sensor_id;sensor_type;location;lat;lon;timestamp;pressure;altitude;pressure_sealevel;temperature;humidity
63903;BME280;50072;50.678;13.938;2023-06-10T00:02:17;99325.09;;;14.23;100.00
63903;BME280;50072;50.678;13.938;2023-06-10T00:04:43;99335.28;;;14.17;100.00
63903;BME280;50072;50.678;13.938;2023-06-10T00:07:09;99331.84;;;14.13;100.00
63903;BME280;50072;50.678;13.938;2023-06-10T00:09:38;99336.53;;;14.08;100.00
63903;BME280;50072;50.678;13.938;2023-06-10T00:12:05;99334.56;;;13.92;100.00
63903;BME280;50072;50.678;13.938;2023-06-10T00:14:32;99337.69;;;14.02;100.00
63903;BME280;50072;50.678;13.938;2023-06-10T00:16:58;99343.00;;;14.04;100.00
63903;BME280;50072;50.678;13.938;2023-06-10T00:19:25;99353.09;;;13.98;100.00
63903;BME280;50072;50.678;13.938;2023-06-10T00:21:56;99356.66;;;13.99;100.00
63903;BME280;50072;50.678;13.938;2023-06-10T00:24:22;99350.88;;;13.88;100.00
63903;BME280;50072;50.678;13.938;2023-06-10T00:26:49;99351.56;;;13.93;100.00
63903;BME280;50072;50.678;13.938;2023-06-10T00:29:15;99346.19;;;13.93;100.00
63903;BME280;50072;50.678;13.938;2023-06-10T00:31:41;99351.56;;;13.93;100.00
63903;BME280;50072;50.678;13.938;2023-06-10T00:34:07;99349.09;;;13.88;100.00
63903;BME280;50072;50.678;13.938;2023-06-10T00:36:34;99350.00;;;13.87;100.00
63903;BME280;50072;50.678;13.938;2023-06-10T00:39:01;99354.56;;;13.85;100.00
63903;BME280;50072;50.678;13.938;2023-06-10T00:41:28;99352.97;;;13.81;100.00
63903;BME280;50072;50.678;13.938;2023-06-10T00:43:54;99361.09;;;13.79;100.00
63903;BME280;50072;50.678;13.938;2023-06-10T00:46:21;99355.00;;;13.76;100.00
63903;BME280;50072;50.678;13.938;2023-06-10T00:48:48;99348.47;;;13.81;100.00
63903;BME280;50072;50.678;13.938;2023-06-10T00:51:16;99346.72;;;13.80;100.00
63903;BME280;50072;50.678;13.938;2023-06-10T00:53:43;99354.84;;;13.79;100.00
63903;BME280;50072;50.678;13.938;2023-06-10T00:56:10;99348.59;;;13.78;100.00
63903;BME280;50072;50.678;13.938;2023-06-10T00:58:35;99348.59;;;13.78;100.00
63903;BME280;50072;50.678;13.938;2023-06-10T01:01:01;99359.03;;;13.66;100.00
63903;BME280;50072;50.678;13.938;2023-06-10T01:03:29;99363.03;;;13.55;100.00
63903;BME280;50072;50.678;13.938;2023-06-10T01:09:10;99372.19;;;13.51;100.00
63903;BME280;50072;50.678;13.938;2023-06-10T01:11:50;99375.94;;;13.47;100.00
63903;BME280;50072;50.678;13.938;2023-06-10T01:14:18;99370.63;;;13.45;100.00
63903;BME280;50072;50.678;13.938;2023-06-10T01:16:44;99368.59;;;13.51;100.00
63903;BME280;50072;50.678;13.938;2023-06-10T01:19:13;99372.19;;;13.51;100.00
63903;BME280;50072;50.678;13.938;2023-06-10T01:21:40;99373.91;;;13.52;100.00
63903;BME280;50072;50.678;13.938;2023-06-10T01:24:07;99371.13;;;13.55;100.00
63903;BME280;50072;50.678;13.938;2023-06-10T01:26:36;99370.00;;;13.59;100.00
63903;BME280;50072;50.678;13.938;2023-06-10T01:29:18;99365.75;;;13.55;100.00
63903;BME280;50072;50.678;13.938;2023-06-10T01:32:08;99374.66;;;13.56;100.00
63903;BME280;50072;50.678;13.938;2023-06-10T01:34:39;99373.91;;;13.52;100.00
63903;BME280;50072;50.678;13.938;2023-06-10T01:37:07;99372.13;;;13.53;100.00
63903;BME280;50072;50.678;13.938;2023-06-10T01:39:35;99370.41;;;13.50;100.00
63903;BME280;50072;50.678;13.938;2023-06-10T01:42:02;99376.06;;;13.44;100.00
63903;BME280;50072;50.678;13.938;2023-06-10T01:44:28;99385.78;;;13.46;100.00
63903;BME280;50072;50.678;13.938;2023-06-10T01:46:54;99383.44;;;13.39;100.00
63903;BME280;50072;50.678;13.938;2023-06-10T01:49:19;99376.44;;;13.35;100.00
63903;BME280;50072;50.678;13.938;2023-06-10T01:51:47;99380.75;;;13.39;100.00
63903;BME280;50072;50.678;13.938;2023-06-10T01:54:13;99376.28;;;13.38;100.00
63903;BME280;50072;50.678;13.938;2023-06-10T01:56:39;99384.44;;;13.36;100.00
63903;BME280;50072;50.678;13.938;2023-06-10T01:59:05;99383.44;;;13.39;100.00
63903;BME280;50072;50.678;13.938;2023-06-10T02:01:31;99385.19;;;13.40;100.00
63903;BME280;50072;50.678;13.938;2023-06-10T02:03:56;99387.94;;;13.38;100.00
63903;BME280;50072;50.678;13.938;2023-06-10T02:06:22;99393.25;;;13.40;100.00
63903;BME280;50072;50.678;13.938;2023-06-10T02:08:48;99380.16;;;13.30;100.00
63903;BME280;50072;50.678;13.938;2023-06-10T02:11:14;99387.63;;;13.22;100.00
63903;BME280;50072;50.678;13.938;2023-06-10T02:13:39;99377.84;;;13.21;100.00
63903;BME280;50072;50.678;13.938;2023-06-10T02:16:05;99376.78;;;13.25;100.00
63903;BME280;50072;50.678;13.938;2023-06-10T02:18:33;99387.53;;;13.25;100.00
63903;BME280;50072;50.678;13.938;2023-06-10T02:20:59;99380.53;;;13.21;100.00
63903;BME280;50072;50.678;13.938;2023-06-10T02:23:25;99382.53;;;13.16;100.00
63903;BME280;50072;50.678;13.938;2023-06-10T02:25:51;99388.75;;;13.17;100.00
63903;BME280;50072;50.678;13.938;2023-06-10T02:28:21;99377.28;;;13.13;100.00
63903;BME280;50072;50.678;13.938;2023-06-10T02:30:47;99383.38;;;13.17;100.00
63903;BME280;50072;50.678;13.938;2023-06-10T02:33:15;99384.41;;;13.14;100.00
63903;BME280;50072;50.678;13.938;2023-06-10T02:35:51;99385.22;;;13.16;100.00
63903;BME280;50072;50.678;13.938;2023-06-10T02:38:21;99384.63;;;13.08;100.00
63903;BME280;50072;50.678;13.938;2023-06-10T02:40:53;99386.38;;;13.09;100.00
63903;BME280;50072;50.678;13.938;2023-06-10T02:43:20;99385.47;;;13.10;100.00
63903;BME280;50072;50.678;13.938;2023-06-10T02:45:51;99379.97;;;13.13;100.00
63903;BME280;50072;50.678;13.938;2023-06-10T02:48:23;99390.78;;;13.11;100.00
63903;BME280;50072;50.678;13.938;2023-06-10T02:50:50;99384.47;;;13.12;100.00
63903;BME280;50072;50.678;13.938;2023-06-10T02:53:22;99396.34;;;13.07;100.00
63903;BME280;50072;50.678;13.938;2023-06-10T02:55:53;99399.81;;;13.09;100.00
63903;BME280;50072;50.678;13.938;2023-06-10T02:58:21;99389.22;;;13.06;100.00
63903;BME280;50072;50.678;13.938;2023-06-10T03:00:54;99397.25;;;13.06;100.00
63903;BME280;50072;50.678;13.938;2023-06-10T03:03:21;99393.75;;;13.04;100.00
63903;BME280;50072;50.678;13.938;2023-06-10T03:05:48;99397.63;;;12.97;100.00
63903;BME280;50072;50.678;13.938;2023-06-10T03:08:15;99399.63;;;12.91;100.00
63903;BME280;50072;50.678;13.938;2023-06-10T03:10:41;99394.38;;;12.88;100.00
63903;BME280;50072;50.678;13.938;2023-06-10T03:13:07;99397.09;;;12.87;100.00
63903;BME280;50072;50.678;13.938;2023-06-10T03:15:32;99404.88;;;12.94;100.00
63903;BME280;50072;50.678;13.938;2023-06-10T03:18:01;99404.00;;;12.94;100.00
63903;BME280;50072;50.678;13.938;2023-06-10T03:20:28;99410.75;;;13.04;100.00
63903;BME280;50072;50.678;13.938;2023-06-10T03:22:54;99405.72;;;12.95;100.00
63903;BME280;50072;50.678;13.938;2023-06-10T03:25:20;99405.91;;;12.90;100.00
63903;BME280;50072;50.678;13.938;2023-06-10T03:27:46;99406.25;;;12.81;100.00
63903;BME280;50072;50.678;13.938;2023-06-10T03:30:13;99408.72;;;12.87;100.00
63903;BME280;50072;50.678;13.938;2023-06-10T03:32:39;99410.25;;;12.94;100.00
63903;BME280;50072;50.678;13.938;2023-06-10T03:35:07;99408.34;;;12.97;100.00
63903;BME280;50072;50.678;13.938;2023-06-10T03:37:33;99412.75;;;12.99;100.00
63903;BME280;50072;50.678;13.938;2023-06-10T03:39:59;99414.50;;;13.00;100.00
63903;BME280;50072;50.678;13.938;2023-06-10T03:42:25;99413.50;;;13.03;100.00
63903;BME280;50072;50.678;13.938;2023-06-10T03:44:51;99416.00;;;13.07;100.00
63903;BME280;50072;50.678;13.938;2023-06-10T03:47:17;99417.50;;;13.15;100.00
63903;BME280;50072;50.678;13.938;2023-06-10T03:49:43;99405.66;;;13.20;100.00
63903;BME280;50072;50.678;13.938;2023-06-10T03:52:09;99414.16;;;13.32;100.00
63903;BME280;50072;50.678;13.938;2023-06-10T03:54:35;99417.78;;;13.30;100.00
63903;BME280;50072;50.678;13.938;2023-06-10T03:57:01;99422.13;;;13.35;100.00
63903;BME280;50072;50.678;13.938;2023-06-10T03:59:27;99422.75;;;13.41;100.00
63903;BME280;50072;50.678;13.938;2023-06-10T04:01:54;99423.56;;;13.43;100.00
63903;BME280;50072;50.678;13.938;2023-06-10T04:04:20;99424.31;;;13.47;100.00
63903;BME280;50072;50.678;13.938;2023-06-10T04:06:46;99424.06;;;13.53;100.00
63903;BME280;50072;50.678;13.938;2023-06-10T04:09:12;99434.69;;;13.56;100.00
63903;BME280;50072;50.678;13.938;2023-06-10T04:11:38;99432.44;;;13.68;100.00
63903;BME280;50072;50.678;13.938;2023-06-10T04:14:04;99438.28;;;13.77;100.00
63903;BME280;50072;50.678;13.938;2023-06-10T04:16:30;99440.66;;;13.85;100.00
63903;BME280;50072;50.678;13.938;2023-06-10T04:18:56;99440.22;;;13.96;100.00
63903;BME280;50072;50.678;13.938;2023-06-10T04:21:22;99439.69;;;14.08;100.00
63903;BME280;50072;50.678;13.938;2023-06-10T04:23:47;99438.28;;;14.20;100.00
63903;BME280;50072;50.678;13.938;2023-06-10T04:26:14;99442.72;;;14.21;100.00
63903;BME280;50072;50.678;13.938;2023-06-10T04:28:40;99437.06;;;14.27;100.00
63903;BME280;50072;50.678;13.938;2023-06-10T04:31:05;99435.06;;;14.32;100.00
63903;BME280;50072;50.678;13.938;2023-06-10T04:33:31;99437.53;;;14.37;100.00
63903;BME280;50072;50.678;13.938;2023-06-10T04:35:57;99441.78;;;14.43;100.00
63903;BME280;50072;50.678;13.938;2023-06-10T04:38:24;99446.72;;;14.52;100.00
63903;BME280;50072;50.678;13.938;2023-06-10T04:40:50;99443.72;;;14.60;100.00
63903;BME280;50072;50.678;13.938;2023-06-10T04:43:15;99440.53;;;14.71;100.00
63903;BME280;50072;50.678;13.938;2023-06-10T04:45:42;99438.53;;;14.76;100.00
63903;BME280;50072;50.678;13.938;2023-06-10T04:48:11;99448.94;;;14.83;100.00
63903;BME280;50072;50.678;13.938;2023-06-10T04:50:37;99449.31;;;14.95;100.00
63903;BME280;50072;50.678;13.938;2023-06-10T04:53:03;99445.81;;;15.12;100.00
63903;BME280;50072;50.678;13.938;2023-06-10T04:55:28;99451.50;;;15.25;100.00
63903;BME280;50072;50.678;13.938;2023-06-10T04:57:55;99443.34;;;15.26;100.00
63903;BME280;50072;50.678;13.938;2023-06-10T05:00:21;99450.06;;;15.36;100.00
63903;BME280;50072;50.678;13.938;2023-06-10T05:02:47;99448.66;;;15.47;100.00
63903;BME280;50072;50.678;13.938;2023-06-10T05:05:17;99450.03;;;15.56;100.00
63903;BME280;50072;50.678;13.938;2023-06-10T05:07:43;99445.22;;;15.62;100.00
63903;BME280;50072;50.678;13.938;2023-06-10T05:10:09;99450.06;;;15.73;100.00
63903;BME280;50072;50.678;13.938;2023-06-10T05:12:40;99451.41;;;15.83;100.00
63903;BME280;50072;50.678;13.938;2023-06-10T05:15:07;99451.94;;;15.90;100.00
63903;BME280;50072;50.678;13.938;2023-06-10T05:17:33;99457.66;;;16.01;100.00
63903;BME280;50072;50.678;13.938;2023-06-10T05:20:01;99457.31;;;16.09;100.00
63903;BME280;50072;50.678;13.938;2023-06-10T05:22:27;99449.59;;;16.19;100.00
63903;BME280;50072;50.678;13.938;2023-06-10T05:24:53;99453.16;;;16.37;100.00
63903;BME280;50072;50.678;13.938;2023-06-10T05:27:19;99460.53;;;16.51;100.00
63903;BME280;50072;50.678;13.938;2023-06-10T05:29:45;99451.78;;;16.63;100.00
63903;BME280;50072;50.678;13.938;2023-06-10T05:32:11;99448.56;;;16.72;100.00
63903;BME280;50072;50.678;13.938;2023-06-10T05:34:37;99460.78;;;16.80;100.00
63903;BME280;50072;50.678;13.938;2023-06-10T05:37:03;99459.66;;;16.84;100.00
63903;BME280;50072;50.678;13.938;2023-06-10T05:39:29;99461.91;;;16.93;100.00
63903;BME280;50072;50.678;13.938;2023-06-10T05:41:57;99450.03;;;16.96;100.00
63903;BME280;50072;50.678;13.938;2023-06-10T05:44:24;99446.03;;;17.03;100.00
63903;BME280;50072;50.678;13.938;2023-06-10T05:46:50;99459.06;;;17.12;100.00
63903;BME280;50072;50.678;13.938;2023-06-10T05:49:16;99453.06;;;17.23;100.00
63903;BME280;50072;50.678;13.938;2023-06-10T05:51:42;99465.13;;;17.33;100.00
63903;BME280;50072;50.678;13.938;2023-06-10T05:54:07;99464.41;;;17.46;100.00
63903;BME280;50072;50.678;13.938;2023-06-10T05:56:33;99467.38;;;17.57;100.00
63903;BME280;50072;50.678;13.938;2023-06-10T05:58:59;99466.94;;;17.65;100.00
63903;BME280;50072;50.678;13.938;2023-06-10T06:01:25;99465.72;;;17.70;100.00
63903;BME280;50072;50.678;13.938;2023-06-10T06:03:51;99470.34;;;17.84;100.00
63903;BME280;50072;50.678;13.938;2023-06-10T06:06:17;99472.25;;;17.82;100.00
63903;BME280;50072;50.678;13.938;2023-06-10T06:08:46;99473.38;;;17.94;100.00
63903;BME280;50072;50.678;13.938;2023-06-10T06:11:13;99469.09;;;18.06;100.00
63903;BME280;50072;50.678;13.938;2023-06-10T06:13:39;99476.56;;;18.17;100.00
63903;BME280;50072;50.678;13.938;2023-06-10T06:16:05;99471.38;;;18.28;100.00
63903;BME280;50072;50.678;13.938;2023-06-10T06:18:31;99473.16;;;18.43;100.00
63903;BME280;50072;50.678;13.938;2023-06-10T06:20:57;99467.78;;;18.58;100.00
63903;BME280;50072;50.678;13.938;2023-06-10T06:23:23;99478.44;;;18.75;100.00
63903;BME280;50072;50.678;13.938;2023-06-10T06:25:49;99479.47;;;18.89;98.94
63903;BME280;50072;50.678;13.938;2023-06-10T06:28:15;99481.41;;;19.01;97.89
63903;BME280;50072;50.678;13.938;2023-06-10T06:30:41;99477.44;;;19.21;96.63
63903;BME280;50072;50.678;13.938;2023-06-10T06:33:06;99472.44;;;19.42;97.87
63903;BME280;50072;50.678;13.938;2023-06-10T06:35:35;99478.63;;;19.59;98.26
63903;BME280;50072;50.678;13.938;2023-06-10T06:38:03;99477.22;;;19.80;95.37
63903;BME280;50072;50.678;13.938;2023-06-10T06:40:30;99476.00;;;19.99;93.81
63903;BME280;50072;50.678;13.938;2023-06-10T06:42:55;99490.59;;;20.11;94.26
63903;BME280;50072;50.678;13.938;2023-06-10T06:45:21;99491.75;;;20.21;94.07
63903;BME280;50072;50.678;13.938;2023-06-10T06:47:47;99498.16;;;20.33;94.91
63903;BME280;50072;50.678;13.938;2023-06-10T06:50:13;99507.88;;;20.37;94.78
63903;BME280;50072;50.678;13.938;2023-06-10T06:52:39;99497.44;;;20.44;95.04
63903;BME280;50072;50.678;13.938;2023-06-10T06:55:05;99502.47;;;20.63;93.31
63903;BME280;50072;50.678;13.938;2023-06-10T06:57:31;99501.00;;;20.84;92.42
63903;BME280;50072;50.678;13.938;2023-06-10T06:59:57;99508.41;;;21.08;89.58
63903;BME280;50072;50.678;13.938;2023-06-10T07:02:23;99503.38;;;20.89;90.02
63903;BME280;50072;50.678;13.938;2023-06-10T07:04:50;99512.53;;;21.01;90.24
63903;BME280;50072;50.678;13.938;2023-06-10T07:07:16;99501.56;;;21.02;90.44
63903;BME280;50072;50.678;13.938;2023-06-10T07:09:43;99507.31;;;20.98;91.76
63903;BME280;50072;50.678;13.938;2023-06-10T07:12:10;99514.19;;;21.03;90.18
63903;BME280;50072;50.678;13.938;2023-06-10T07:14:37;99512.78;;;20.98;91.52
63903;BME280;50072;50.678;13.938;2023-06-10T07:17:03;99513.06;;;20.80;91.09
63903;BME280;50072;50.678;13.938;2023-06-10T07:19:30;99524.06;;;21.04;90.79
63903;BME280;50072;50.678;13.938;2023-06-10T07:21:55;99523.44;;;21.14;89.55
63903;BME280;50072;50.678;13.938;2023-06-10T07:24:21;99520.69;;;21.27;89.52
63903;BME280;50072;50.678;13.938;2023-06-10T07:26:48;99526.47;;;21.35;90.15
63903;BME280;50072;50.678;13.938;2023-06-10T07:29:14;99526.56;;;21.46;86.93
63903;BME280;50072;50.678;13.938;2023-06-10T07:31:41;99528.84;;;21.52;85.93
63903;BME280;50072;50.678;13.938;2023-06-10T07:34:07;99532.09;;;21.58;85.04
63903;BME280;50072;50.678;13.938;2023-06-10T07:36:32;99526.22;;;21.51;86.70
63903;BME280;50072;50.678;13.938;2023-06-10T07:38:59;99530.88;;;21.62;86.31
63903;BME280;50072;50.678;13.938;2023-06-10T07:41:30;99532.72;;;21.74;84.52
63903;BME280;50072;50.678;13.938;2023-06-10T07:43:56;99536.88;;;21.67;85.39
63903;BME280;50072;50.678;13.938;2023-06-10T07:46:22;99540.44;;;21.80;85.29
63903;BME280;50072;50.678;13.938;2023-06-10T07:48:49;99543.38;;;21.77;85.65
63903;BME280;50072;50.678;13.938;2023-06-10T07:51:16;99537.66;;;21.93;83.85
63903;BME280;50072;50.678;13.938;2023-06-10T07:53:42;99538.38;;;22.08;83.07
63903;BME280;50072;50.678;13.938;2023-06-10T07:56:08;99537.56;;;22.19;82.21
63903;BME280;50072;50.678;13.938;2023-06-10T07:58:34;99543.41;;;22.38;80.81
63903;BME280;50072;50.678;13.938;2023-06-10T08:01:00;99546.88;;;22.65;77.37
63903;BME280;50072;50.678;13.938;2023-06-10T08:03:26;99550.91;;;22.95;78.05
63903;BME280;50072;50.678;13.938;2023-06-10T08:05:52;99548.16;;;23.30;76.77
63903;BME280;50072;50.678;13.938;2023-06-10T08:08:17;99555.31;;;23.76;77.13
63903;BME280;50072;50.678;13.938;2023-06-10T08:10:43;99549.22;;;24.07;74.06
63903;BME280;50072;50.678;13.938;2023-06-10T08:13:11;99553.19;;;24.03;71.49
63903;BME280;50072;50.678;13.938;2023-06-10T08:15:37;99556.16;;;24.11;70.88
63903;BME280;50072;50.678;13.938;2023-06-10T08:18:02;99559.81;;;24.00;69.47
63903;BME280;50072;50.678;13.938;2023-06-10T08:20:29;99559.44;;;23.71;71.72
63903;BME280;50072;50.678;13.938;2023-06-10T08:22:54;99557.47;;;23.50;71.53
63903;BME280;50072;50.678;13.938;2023-06-10T08:25:21;99568.72;;;23.12;72.46
63903;BME280;50072;50.678;13.938;2023-06-10T08:27:48;99559.31;;;22.91;73.68
63903;BME280;50072;50.678;13.938;2023-06-10T08:30:14;99566.34;;;22.71;75.13
63903;BME280;50072;50.678;13.938;2023-06-10T08:32:40;99563.97;;;22.67;75.77
63903;BME280;50072;50.678;13.938;2023-06-10T08:35:06;99563.06;;;22.55;74.93
63903;BME280;50072;50.678;13.938;2023-06-10T08:37:31;99561.03;;;22.46;74.78
63903;BME280;50072;50.678;13.938;2023-06-10T08:39:58;99557.66;;;22.66;75.07
63903;BME280;50072;50.678;13.938;2023-06-10T08:42:49;99566.50;;;22.81;75.07
63903;BME280;50072;50.678;13.938;2023-06-10T08:45:20;99562.28;;;22.88;74.19
63903;BME280;50072;50.678;13.938;2023-06-10T08:47:49;99564.03;;;22.89;72.43
63903;BME280;50072;50.678;13.938;2023-06-10T08:50:19;99569.09;;;22.83;74.91
63903;BME280;50072;50.678;13.938;2023-06-10T08:52:48;99572.44;;;22.75;74.46
63903;BME280;50072;50.678;13.938;2023-06-10T08:55:30;99573.00;;;22.67;74.48
63903;BME280;50072;50.678;13.938;2023-06-10T08:58:02;99575.47;;;22.59;74.34
63903;BME280;50072;50.678;13.938;2023-06-10T09:00:29;99572.94;;;22.80;74.12
63903;BME280;50072;50.678;13.938;2023-06-10T09:02:56;99578.91;;;22.85;74.85
63903;BME280;50072;50.678;13.938;2023-06-10T09:05:22;99583.03;;;22.91;76.50
63903;BME280;50072;50.678;13.938;2023-06-10T09:07:48;99583.34;;;22.75;74.63
63903;BME280;50072;50.678;13.938;2023-06-10T09:10:15;99579.06;;;22.60;78.35
63903;BME280;50072;50.678;13.938;2023-06-10T09:12:40;99581.38;;;22.53;79.39
63903;BME280;50072;50.678;13.938;2023-06-10T09:15:07;99589.03;;;22.23;81.96
63903;BME280;50072;50.678;13.938;2023-06-10T09:17:33;99591.91;;;22.09;83.55
63903;BME280;50072;50.678;13.938;2023-06-10T09:20:00;99586.63;;;21.82;84.33
63903;BME280;50072;50.678;13.938;2023-06-10T09:22:27;99581.13;;;21.58;84.82
63903;BME280;50072;50.678;13.938;2023-06-10T09:25:14;99575.75;;;21.43;86.90
63903;BME280;50072;50.678;13.938;2023-06-10T09:27:57;99578.72;;;21.40;89.27
63903;BME280;50072;50.678;13.938;2023-06-10T09:30:31;99575.03;;;21.15;91.86
63903;BME280;50072;50.678;13.938;2023-06-10T09:33:00;99581.09;;;21.06;92.39
63903;BME280;50072;50.678;13.938;2023-06-10T09:35:28;99585.44;;;20.96;93.86
63903;BME280;50072;50.678;13.938;2023-06-10T09:37:58;99590.03;;;20.95;94.60
63903;BME280;50072;50.678;13.938;2023-06-10T09:40:26;99580.78;;;20.85;95.56
63903;BME280;50072;50.678;13.938;2023-06-10T09:42:55;99584.25;;;21.00;95.58
63903;BME280;50072;50.678;13.938;2023-06-10T09:45:22;99586.78;;;21.16;95.98
63903;BME280;50072;50.678;13.938;2023-06-10T09:47:52;99584.16;;;21.27;95.76
63903;BME280;50072;50.678;13.938;2023-06-10T09:50:18;99585.47;;;21.34;95.97
63903;BME280;50072;50.678;13.938;2023-06-10T09:52:46;99590.38;;;21.42;96.83
63903;BME280;50072;50.678;13.938;2023-06-10T09:55:12;99597.03;;;21.64;94.70
63903;BME280;50072;50.678;13.938;2023-06-10T09:57:38;99601.09;;;21.95;92.93
63903;BME280;50072;50.678;13.938;2023-06-10T10:00:09;99602.94;;;22.45;90.21
63903;BME280;50072;50.678;13.938;2023-06-10T10:02:47;99606.47;;;23.29;82.87
63903;BME280;50072;50.678;13.938;2023-06-10T10:05:19;99597.81;;;24.15;78.06
63903;BME280;50072;50.678;13.938;2023-06-10T10:07:45;99604.34;;;24.78;74.97
63903;BME280;50072;50.678;13.938;2023-06-10T10:10:13;99596.00;;;25.01;73.85
63903;BME280;50072;50.678;13.938;2023-06-10T10:12:40;99608.16;;;24.87;69.50
63903;BME280;50072;50.678;13.938;2023-06-10T10:15:10;99600.50;;;24.70;72.84
63903;BME280;50072;50.678;13.938;2023-06-10T10:18:05;99604.56;;;24.43;74.22
63903;BME280;50072;50.678;13.938;2023-06-10T10:20:33;99609.16;;;23.99;75.70
63903;BME280;50072;50.678;13.938;2023-06-10T10:23:03;99608.34;;;23.85;76.11
63903;BME280;50072;50.678;13.938;2023-06-10T10:25:34;99604.78;;;23.62;75.88
63903;BME280;50072;50.678;13.938;2023-06-10T10:28:13;99600.16;;;23.40;81.13
63903;BME280;50072;50.678;13.938;2023-06-10T10:30:44;99596.69;;;23.60;78.22
63903;BME280;50072;50.678;13.938;2023-06-10T10:33:13;99591.72;;;24.00;76.11
63903;BME280;50072;50.678;13.938;2023-06-10T10:35:43;99590.78;;;24.44;73.49
63903;BME280;50072;50.678;13.938;2023-06-10T10:38:09;99597.31;;;24.64;73.06
63903;BME280;50072;50.678;13.938;2023-06-10T10:40:36;99595.91;;;25.03;72.99
63903;BME280;50072;50.678;13.938;2023-06-10T10:43:02;99594.97;;;25.35;69.29
63903;BME280;50072;50.678;13.938;2023-06-10T10:45:29;99590.53;;;25.22;68.94
63903;BME280;50072;50.678;13.938;2023-06-10T10:47:55;99584.75;;;25.15;69.56
63903;BME280;50072;50.678;13.938;2023-06-10T10:50:23;99585.84;;;24.59;72.23
63903;BME280;50072;50.678;13.938;2023-06-10T10:52:58;99585.38;;;24.66;70.59
63903;BME280;50072;50.678;13.938;2023-06-10T10:55:26;99584.66;;;24.41;72.14
63903;BME280;50072;50.678;13.938;2023-06-10T11:00:45;99585.19;;;24.35;76.10
63903;BME280;50072;50.678;13.938;2023-06-10T11:03:15;99586.94;;;24.36;73.08
63903;BME280;50072;50.678;13.938;2023-06-10T11:05:43;99585.56;;;24.41;73.45
63903;BME280;50072;50.678;13.938;2023-06-10T11:08:13;99580.91;;;24.64;68.02
63903;BME280;50072;50.678;13.938;2023-06-10T11:10:41;99577.97;;;24.77;68.82
63903;BME280;50072;50.678;13.938;2023-06-10T11:13:20;99569.72;;;25.10;65.83
63903;BME280;50072;50.678;13.938;2023-06-10T11:15:48;99573.38;;;25.41;61.72
63903;BME280;50072;50.678;13.938;2023-06-10T11:18:24;99577.47;;;26.48;58.17
63903;BME280;50072;50.678;13.938;2023-06-10T11:21:04;99561.25;;;28.72;50.37
63903;BME280;50072;50.678;13.938;2023-06-10T11:23:33;99555.38;;;29.11;49.50
63903;BME280;50072;50.678;13.938;2023-06-10T11:31:19;99541.13;;;27.80;48.91
63903;BME280;50072;50.678;13.938;2023-06-10T11:33:59;99543.44;;;27.47;50.06
63903;BME280;50072;50.678;13.938;2023-06-10T11:36:27;99540.09;;;27.33;51.20
63903;BME280;50072;50.678;13.938;2023-06-10T11:38:58;99537.25;;;27.25;50.41
63903;BME280;50072;50.678;13.938;2023-06-10T11:41:27;99543.47;;;27.27;50.94
63903;BME280;50072;50.678;13.938;2023-06-10T11:43:56;99536.56;;;27.88;48.07
63903;BME280;50072;50.678;13.938;2023-06-10T11:46:23;99535.50;;;28.63;46.72
63903;BME280;50072;50.678;13.938;2023-06-10T11:48:55;99525.88;;;29.03;45.66
63903;BME280;50072;50.678;13.938;2023-06-10T11:51:22;99532.94;;;30.77;42.23
63903;BME280;50072;50.678;13.938;2023-06-10T11:53:48;99531.28;;;33.74;35.11
63903;BME280;50072;50.678;13.938;2023-06-10T11:59:07;99521.69;;;37.08;30.24
63903;BME280;50072;50.678;13.938;2023-06-10T12:01:35;99528.28;;;38.71;27.73
63903;BME280;50072;50.678;13.938;2023-06-10T12:04:08;99519.44;;;39.87;24.92
63903;BME280;50072;50.678;13.938;2023-06-10T12:09:06;99521.41;;;41.55;22.78
63903;BME280;50072;50.678;13.938;2023-06-10T12:11:33;99529.94;;;41.49;22.71
63903;BME280;50072;50.678;13.938;2023-06-10T12:13:59;99516.50;;;41.15;22.64
63903;BME280;50072;50.678;13.938;2023-06-10T12:16:25;99507.44;;;42.54;21.75
63903;BME280;50072;50.678;13.938;2023-06-10T12:19:01;99512.19;;;42.99;20.85
63903;BME280;50072;50.678;13.938;2023-06-10T12:21:28;99505.44;;;42.66;20.74
63903;BME280;50072;50.678;13.938;2023-06-10T12:24:08;99504.13;;;42.57;20.23
63903;BME280;50072;50.678;13.938;2023-06-10T12:31:58;99496.75;;;41.22;22.64
63903;BME280;50072;50.678;13.938;2023-06-10T12:37:02;99486.84;;;38.16;25.33
63903;BME280;50072;50.678;13.938;2023-06-10T12:39:30;99484.59;;;37.93;25.38
63903;BME280;50072;50.678;13.938;2023-06-10T12:41:57;99476.47;;;36.10;27.10
63903;BME280;50072;50.678;13.938;2023-06-10T12:44:30;99475.88;;;38.53;25.27
63903;BME280;50072;50.678;13.938;2023-06-10T12:46:57;99475.81;;;38.28;25.73
63903;BME280;50072;50.678;13.938;2023-06-10T12:49:23;99470.75;;;38.11;25.46
63903;BME280;50072;50.678;13.938;2023-06-10T12:51:49;99463.00;;;39.65;22.63
63903;BME280;50072;50.678;13.938;2023-06-10T12:54:15;99468.56;;;41.40;21.49
63903;BME280;50072;50.678;13.938;2023-06-10T12:56:41;99461.13;;;38.39;23.89
63903;BME280;50072;50.678;13.938;2023-06-10T12:59:06;99469.97;;;38.93;23.60
63903;BME280;50072;50.678;13.938;2023-06-10T13:01:32;99471.41;;;40.75;21.94
63903;BME280;50072;50.678;13.938;2023-06-10T13:03:58;99473.72;;;41.72;21.58
63903;BME280;50072;50.678;13.938;2023-06-10T13:06:25;99469.06;;;40.71;21.49
63903;BME280;50072;50.678;13.938;2023-06-10T13:08:51;99468.72;;;40.80;22.42
63903;BME280;50072;50.678;13.938;2023-06-10T13:11:17;99455.22;;;41.00;21.11
63903;BME280;50072;50.678;13.938;2023-06-10T13:13:43;99471.09;;;40.22;22.26